createdAt,value
2022-09-10T00:00:14.534Z,15.50
2022-09-10T00:02:41.409Z,15.50
2022-09-10T00:05:10.086Z,15.50
2022-09-10T00:07:37.705Z,15.50
2022-09-10T00:10:04.860Z,15.60
2022-09-10T00:12:31.719Z,15.50
2022-09-10T00:14:58.425Z,15.50
2022-09-10T00:17:27.568Z,15.50
2022-09-10T00:19:55.111Z,15.50
2022-09-10T00:22:22.591Z,15.50
2022-09-10T00:24:49.441Z,15.50
2022-09-10T00:27:16.169Z,15.50
2022-09-10T00:29:43.021Z,15.50
2022-09-10T00:32:10.275Z,15.50
2022-09-10T00:34:37.040Z,15.50
2022-09-10T00:37:03.871Z,15.50
2022-09-10T00:39:30.626Z,15.50
2022-09-10T00:41:58.225Z,15.60
2022-09-10T00:44:40.101Z,15.60
2022-09-10T00:47:20.092Z,15.60
2022-09-10T00:49:55.097Z,15.60
2022-09-10T00:52:22.495Z,15.60
2022-09-10T00:54:49.811Z,15.60
2022-09-10T00:57:20.924Z,15.60
2022-09-10T00:59:53.166Z,15.60
2022-09-10T01:02:20.180Z,15.60
2022-09-10T01:04:47.174Z,15.70
2022-09-10T01:07:15.794Z,15.70
2022-09-10T01:09:43.546Z,15.70
2022-09-10T01:12:19.400Z,15.60
2022-09-10T01:15:05.478Z,15.60
2022-09-10T01:17:34.942Z,15.60
2022-09-10T01:20:40.559Z,15.60
2022-09-10T01:23:25.081Z,15.60
2022-09-10T01:26:10.746Z,15.60
2022-09-10T01:28:51.256Z,15.60
2022-09-10T01:31:28.145Z,15.70
2022-09-10T01:34:35.776Z,15.70
2022-09-10T01:37:21.618Z,15.70
2022-09-10T01:39:49.737Z,15.70
2022-09-10T01:42:17.502Z,15.70
2022-09-10T01:44:48.513Z,15.70
2022-09-10T01:47:51.472Z,15.70
2022-09-10T01:50:33.405Z,15.70
2022-09-10T01:53:30.965Z,15.70
2022-09-10T01:56:35.648Z,15.70
2022-09-10T01:59:17.879Z,15.60
2022-09-10T02:02:03.908Z,15.70
2022-09-10T02:04:31.450Z,15.70
2022-09-10T02:06:59.716Z,15.70
2022-09-10T02:09:27.158Z,15.70
2022-09-10T02:11:56.218Z,15.70
2022-09-10T02:14:23.189Z,15.60
2022-09-10T02:16:55.311Z,15.70
2022-09-10T02:19:22.048Z,15.60
2022-09-10T02:21:49.500Z,15.60
2022-09-10T02:24:16.265Z,15.50
2022-09-10T02:26:44.398Z,15.60
2022-09-10T02:29:15.345Z,15.50
2022-09-10T02:31:43.843Z,15.60
2022-09-10T02:34:11.174Z,15.60
2022-09-10T02:36:38.348Z,15.60
2022-09-10T02:39:06.479Z,15.60
2022-09-10T02:41:37.653Z,15.60
2022-09-10T02:44:04.743Z,15.60
2022-09-10T02:46:31.819Z,15.70
2022-09-10T02:48:58.943Z,15.70
2022-09-10T02:51:26.321Z,15.70
2022-09-10T02:53:53.205Z,15.70
2022-09-10T02:56:19.994Z,15.70
2022-09-10T02:58:46.803Z,15.70
2022-09-10T03:01:16.896Z,15.60
2022-09-10T03:03:43.703Z,15.60
2022-09-10T03:06:10.842Z,15.60
2022-09-10T03:08:38.218Z,15.60
2022-09-10T03:11:05.809Z,15.60
2022-09-10T03:13:32.634Z,15.60
2022-09-10T03:15:59.443Z,15.60
2022-09-10T03:18:27.688Z,15.60
2022-09-10T03:20:54.595Z,15.60
2022-09-10T03:23:21.389Z,15.60
2022-09-10T03:25:49.915Z,15.60
2022-09-10T03:28:16.835Z,15.60
2022-09-10T03:30:43.769Z,15.60
2022-09-10T03:33:11.786Z,15.50
2022-09-10T03:35:38.819Z,15.40
2022-09-10T03:38:05.835Z,15.40
2022-09-10T03:40:34.086Z,15.40
2022-09-10T03:43:01.187Z,15.30
2022-09-10T03:45:28.652Z,15.30
2022-09-10T03:47:55.582Z,15.30
2022-09-10T03:50:22.482Z,15.20
2022-09-10T03:52:50.119Z,15.20
2022-09-10T03:55:17.967Z,15.20
2022-09-10T03:57:45.704Z,15.20
2022-09-10T04:00:12.610Z,15.20
2022-09-10T04:02:41.577Z,15.10
2022-09-10T04:05:09.064Z,15.10
2022-09-10T04:07:37.015Z,15.00
2022-09-10T04:10:04.459Z,15.00
2022-09-10T04:12:31.337Z,15.00
2022-09-10T04:14:58.204Z,15.00
2022-09-10T04:17:25.367Z,14.90
2022-09-10T04:19:52.128Z,14.90
2022-09-10T04:22:18.834Z,14.80
2022-09-10T04:24:45.730Z,14.80
2022-09-10T04:27:12.455Z,14.80
2022-09-10T04:29:39.223Z,14.80
2022-09-10T04:32:06.094Z,14.80
2022-09-10T04:34:32.859Z,14.80
2022-09-10T04:36:59.633Z,14.80
2022-09-10T04:39:26.337Z,14.90
2022-09-10T04:41:53.098Z,14.90
2022-09-10T04:44:20.257Z,15.00
2022-09-10T04:46:47.827Z,15.00
2022-09-10T04:49:14.583Z,15.00
2022-09-10T04:51:41.379Z,15.00
2022-09-10T04:54:08.192Z,15.10
2022-09-10T04:56:34.941Z,15.10
2022-09-10T04:59:01.744Z,15.10
2022-09-10T05:01:28.988Z,15.20
2022-09-10T05:03:55.756Z,15.20
2022-09-10T05:06:23.287Z,15.30
2022-09-10T05:08:50.707Z,15.30
2022-09-10T05:11:19.646Z,15.30
2022-09-10T05:13:46.678Z,15.30
2022-09-10T05:16:13.789Z,15.40
2022-09-10T05:18:40.546Z,15.30
2022-09-10T05:21:07.582Z,15.40
2022-09-10T05:23:34.378Z,15.40
2022-09-10T05:26:01.095Z,15.50
2022-09-10T05:28:27.899Z,15.50
2022-09-10T05:30:54.664Z,15.50
2022-09-10T05:33:22.057Z,15.50
2022-09-10T05:35:51.755Z,15.60
2022-09-10T05:38:19.456Z,15.70
2022-09-10T05:40:46.266Z,15.90
2022-09-10T05:43:13.011Z,16.10
2022-09-10T05:45:39.893Z,16.00
2022-09-10T05:48:06.702Z,16.00
2022-09-10T05:50:33.571Z,16.00
2022-09-10T05:53:01.118Z,16.10
2022-09-10T05:55:27.837Z,16.20
2022-09-10T05:57:54.733Z,16.10
2022-09-10T06:00:21.490Z,16.20
2022-09-10T06:02:48.356Z,16.20
2022-09-10T06:05:15.366Z,16.60
2022-09-10T06:07:42.206Z,16.60
2022-09-10T06:10:09.518Z,16.70
2022-09-10T06:12:36.217Z,16.90
2022-09-10T06:15:03.697Z,19.60
2022-09-10T06:17:30.594Z,19.80
2022-09-10T06:19:58.013Z,18.50
2022-09-10T06:22:25.034Z,17.80
2022-09-10T06:24:53.735Z,17.80
2022-09-10T06:27:23.199Z,17.30
2022-09-10T06:29:51.271Z,17.40
2022-09-10T06:32:18.313Z,17.30
2022-09-10T06:34:45.074Z,17.10
2022-09-10T06:37:12.261Z,17.40
2022-09-10T06:39:39.090Z,17.70
2022-09-10T06:42:06.249Z,17.40
2022-09-10T06:44:33.343Z,17.40
2022-09-10T06:47:45.979Z,17.40
2022-09-10T06:49:48.986Z,17.80
2022-09-10T06:52:15.870Z,17.80
2022-09-10T06:54:42.658Z,17.60
2022-09-10T06:57:09.468Z,17.50
2022-09-10T06:59:36.238Z,17.90
2022-09-10T07:02:02.972Z,18.10
2022-09-10T07:04:29.716Z,17.80
2022-09-10T07:06:58.591Z,17.70
2022-09-10T07:09:25.485Z,17.80
2022-09-10T07:11:52.477Z,17.70
2022-09-10T07:14:19.345Z,17.50
2022-09-10T07:16:47.201Z,17.60
2022-09-10T07:19:15.160Z,17.60
2022-09-10T07:21:42.031Z,17.40
2022-09-10T07:24:12.189Z,17.30
2022-09-10T07:26:39.070Z,17.10
2022-09-10T07:29:06.196Z,17.00
2022-09-10T07:31:35.057Z,16.70
2022-09-10T07:34:03.391Z,16.70
2022-09-10T07:36:30.778Z,16.70
2022-09-10T07:38:58.826Z,16.80
2022-09-10T07:41:29.509Z,16.80
2022-09-10T07:43:56.770Z,16.90
2022-09-10T07:46:25.490Z,17.10
2022-09-10T07:49:00.432Z,17.20
2022-09-10T07:51:29.318Z,17.50
2022-09-10T07:53:58.402Z,17.70
2022-09-10T07:56:25.336Z,17.70
2022-09-10T07:58:53.863Z,17.70
2022-09-10T08:01:20.980Z,17.60
2022-09-10T08:03:48.125Z,17.20
2022-09-10T08:06:15.766Z,17.30
2022-09-10T08:08:43.289Z,17.40
2022-09-10T08:11:19.391Z,17.60
2022-09-10T08:13:51.715Z,17.40
2022-09-10T08:16:25.382Z,17.20
2022-09-10T08:18:52.229Z,17.10
2022-09-10T08:21:19.643Z,17.00
2022-09-10T08:23:51.635Z,16.90
2022-09-10T08:26:18.623Z,16.80
2022-09-10T08:28:45.591Z,16.70
2022-09-10T08:31:14.206Z,16.80
2022-09-10T08:33:41.050Z,17.10
2022-09-10T08:36:13.781Z,17.50
2022-09-10T08:38:41.573Z,18.00
2022-09-10T08:41:42.375Z,17.80
2022-09-10T08:44:17.985Z,18.60
2022-09-10T08:47:01.638Z,18.60
2022-09-10T08:50:00.395Z,19.20
2022-09-10T08:52:35.648Z,19.80
2022-09-10T08:55:23.091Z,20.30
2022-09-10T08:58:12.215Z,19.70
2022-09-10T09:00:42.187Z,19.10
2022-09-10T09:03:20.626Z,18.60
2022-09-10T09:05:56.095Z,18.10
2022-09-10T09:08:27.575Z,17.60
2022-09-10T09:11:12.025Z,17.60
2022-09-10T09:14:11.648Z,17.60
2022-09-10T09:17:01.901Z,17.30
2022-09-10T09:19:40.718Z,17.50
2022-09-10T09:22:30.764Z,17.50
2022-09-10T09:25:00.767Z,17.80
2022-09-10T09:27:31.844Z,18.10
2022-09-10T09:30:07.000Z,18.40
2022-09-10T09:32:36.737Z,18.60
2022-09-10T09:35:25.679Z,18.70
2022-09-10T09:38:08.043Z,18.70
2022-09-10T09:40:47.535Z,18.50
2022-09-10T09:43:27.762Z,18.20
2022-09-10T09:45:54.906Z,17.90
2022-09-10T09:48:23.784Z,18.00
2022-09-10T09:50:53.841Z,18.30
2022-09-10T09:53:26.029Z,18.70
2022-09-10T09:55:56.334Z,18.80
2022-09-10T09:58:26.449Z,19.10
2022-09-10T10:01:20.656Z,18.70
2022-09-10T10:03:50.371Z,19.00
2022-09-10T10:06:22.007Z,18.70
2022-09-10T10:09:01.900Z,19.40
2022-09-10T10:11:45.175Z,19.20
2022-09-10T10:14:21.228Z,19.50
2022-09-10T10:16:49.220Z,19.40
2022-09-10T10:19:29.002Z,19.30
2022-09-10T10:21:55.831Z,19.40
2022-09-10T10:24:33.513Z,19.30
2022-09-10T10:27:00.924Z,19.00
2022-09-10T10:29:28.087Z,19.00
2022-09-10T10:31:56.276Z,18.80
2022-09-10T10:34:38.073Z,19.10
2022-09-10T10:37:16.097Z,19.20
2022-09-10T10:40:09.956Z,19.60
2022-09-10T10:42:42.940Z,19.80
2022-09-10T10:45:28.644Z,20.00
2022-09-10T10:48:12.844Z,20.10
2022-09-10T10:50:52.671Z,20.20
2022-09-10T10:53:57.010Z,19.80
2022-09-10T10:56:32.756Z,19.80
2022-09-10T10:59:31.364Z,19.90
2022-09-10T11:02:11.351Z,20.00
2022-09-10T11:04:46.788Z,19.80
2022-09-10T11:07:20.544Z,19.20
2022-09-10T11:10:14.787Z,19.40
2022-09-10T11:12:50.740Z,19.60
2022-09-10T11:15:38.633Z,19.70
2022-09-10T11:18:20.881Z,19.90
2022-09-10T11:21:32.199Z,20.20
2022-09-10T11:24:22.448Z,20.30
2022-09-10T11:27:06.836Z,19.90
2022-09-10T11:29:52.482Z,19.90
2022-09-10T11:32:39.332Z,20.50
2022-09-10T11:35:18.959Z,20.50
2022-09-10T11:37:51.543Z,20.70
2022-09-10T11:40:47.777Z,20.60
2022-09-10T11:43:27.221Z,20.80
2022-09-10T11:46:00.263Z,20.60
2022-09-10T11:48:37.233Z,20.60
2022-09-10T11:51:22.407Z,20.40
2022-09-10T11:53:50.090Z,20.00
2022-09-10T11:56:20.035Z,19.70
2022-09-10T11:59:17.867Z,19.70
2022-09-10T12:02:22.114Z,19.60
2022-09-10T12:05:30.242Z,19.90
2022-09-10T12:08:32.795Z,19.90
2022-09-10T12:11:36.998Z,19.70
2022-09-10T12:14:13.590Z,19.60
2022-09-10T12:16:46.549Z,19.30
2022-09-10T12:19:31.537Z,19.10
2022-09-10T12:22:06.043Z,19.00
2022-09-10T12:24:36.299Z,19.00
2022-09-10T12:27:08.018Z,18.80
2022-09-10T12:29:42.767Z,18.60
2022-09-10T12:32:09.804Z,18.80
2022-09-10T12:34:37.437Z,19.10
2022-09-10T12:37:04.214Z,18.80
2022-09-10T12:39:31.953Z,18.50
2022-09-10T12:42:02.076Z,18.70
2022-09-10T12:44:35.173Z,18.70
2022-09-10T12:47:17.013Z,18.70
2022-09-10T12:49:47.998Z,18.60
2022-09-10T12:52:39.587Z,18.80
2022-09-10T12:55:15.253Z,18.70
2022-09-10T12:58:10.030Z,18.80
2022-09-10T13:00:56.368Z,18.70
2022-09-10T13:03:26.457Z,18.50
2022-09-10T13:05:56.221Z,18.40
2022-09-10T13:08:45.319Z,18.30
2022-09-10T13:11:23.824Z,18.20
2022-09-10T13:14:05.432Z,18.10
2022-09-10T13:16:32.533Z,18.20
2022-09-10T13:19:14.527Z,18.20
2022-09-10T13:21:41.170Z,18.20
2022-09-10T13:24:36.267Z,18.20
2022-09-10T13:27:22.726Z,18.20
2022-09-10T13:30:20.170Z,18.50
2022-09-10T13:32:59.613Z,18.60
2022-09-10T13:35:41.878Z,18.80
2022-09-10T13:38:27.383Z,19.00
2022-09-10T13:41:12.202Z,18.80
2022-09-10T13:43:44.786Z,18.70
2022-09-10T13:46:33.380Z,18.80
2022-09-10T13:49:23.093Z,18.70
2022-09-10T13:51:53.254Z,18.60
2022-09-10T13:54:25.957Z,18.50
2022-09-10T13:56:54.143Z,18.60
2022-09-10T13:59:28.979Z,18.90
2022-09-10T14:01:56.911Z,19.00
2022-09-10T14:04:35.639Z,18.90
2022-09-10T14:07:15.907Z,18.90
2022-09-10T14:09:52.394Z,19.00
2022-09-10T14:12:23.732Z,19.10
2022-09-10T14:14:55.743Z,19.40
2022-09-10T14:17:31.441Z,19.00
2022-09-10T14:20:02.240Z,18.80
2022-09-10T14:22:31.243Z,19.00
2022-09-10T14:25:00.689Z,19.10
2022-09-10T14:27:31.058Z,19.30
2022-09-10T14:30:21.769Z,19.10
2022-09-10T14:32:48.758Z,19.30
2022-09-10T14:35:44.511Z,19.60
2022-09-10T14:38:24.466Z,19.20
2022-09-10T14:41:08.838Z,19.30
2022-09-10T14:43:39.055Z,19.40
2022-09-10T14:46:08.032Z,19.30
2022-09-10T14:49:04.666Z,19.30
2022-09-10T14:51:31.430Z,19.30
2022-09-10T14:53:59.126Z,19.10
2022-09-10T14:56:32.725Z,19.20
2022-09-10T14:59:17.553Z,19.20
2022-09-10T15:01:48.558Z,19.20
2022-09-10T15:04:18.522Z,19.10
2022-09-10T15:06:45.291Z,19.20
2022-09-10T15:09:13.822Z,19.00
2022-09-10T15:12:01.802Z,19.00
2022-09-10T15:14:29.592Z,19.20
2022-09-10T15:16:56.351Z,19.10
2022-09-10T15:19:23.554Z,19.20
2022-09-10T15:21:52.585Z,19.20
2022-09-10T15:24:22.062Z,19.30
2022-09-10T15:26:49.821Z,19.40
2022-09-10T15:29:17.952Z,19.40
2022-09-10T15:31:45.285Z,19.30
2022-09-10T15:34:12.513Z,19.20
2022-09-10T15:36:41.401Z,19.20
2022-09-10T15:39:11.345Z,19.30
2022-09-10T15:41:42.623Z,19.10
2022-09-10T15:44:09.877Z,19.20
2022-09-10T15:46:40.745Z,18.90
2022-09-10T15:49:08.026Z,18.80
2022-09-10T15:51:34.781Z,18.70
2022-09-10T15:54:04.914Z,18.70
2022-09-10T15:56:32.742Z,18.80
2022-09-10T15:58:59.545Z,18.80
2022-09-10T16:01:28.828Z,18.80
2022-09-10T16:03:57.586Z,18.70
2022-09-10T16:06:27.337Z,18.80
2022-09-10T16:09:00.985Z,18.60
2022-09-10T16:11:33.136Z,18.70
2022-09-10T16:14:04.679Z,18.70
2022-09-10T16:16:33.712Z,18.70
2022-09-10T16:19:01.469Z,18.50
2022-09-10T16:21:31.037Z,18.50
2022-09-10T16:23:59.890Z,18.30
2022-09-10T16:26:29.801Z,18.40
2022-09-10T16:29:01.827Z,18.40
2022-09-10T16:31:34.388Z,18.50
2022-09-10T16:34:03.612Z,18.40
2022-09-10T16:36:33.003Z,18.40
2022-09-10T16:39:04.123Z,18.40
2022-09-10T16:41:33.068Z,18.40
2022-09-10T16:44:00.625Z,18.30
2022-09-10T16:46:28.254Z,18.40
2022-09-10T16:48:56.124Z,18.20
2022-09-10T16:51:25.169Z,18.10
2022-09-10T16:54:03.817Z,18.10
2022-09-10T16:56:34.888Z,18.00
2022-09-10T16:59:02.243Z,17.80
2022-09-10T17:01:29.716Z,17.80
2022-09-10T17:03:56.622Z,17.80
2022-09-10T17:06:25.878Z,17.80
2022-09-10T17:08:57.796Z,17.80
2022-09-10T17:11:26.673Z,17.90
2022-09-10T17:13:54.292Z,17.80
2022-09-10T17:16:21.144Z,17.80
2022-09-10T17:18:54.527Z,17.80
2022-09-10T17:21:21.812Z,17.80
2022-09-10T17:23:48.951Z,17.80
2022-09-10T17:26:15.779Z,17.70
2022-09-10T17:28:43.049Z,17.70
2022-09-10T17:31:12.613Z,17.60
2022-09-10T17:33:39.329Z,17.60
2022-09-10T17:36:06.345Z,17.50
2022-09-10T17:38:34.497Z,17.50
2022-09-10T17:41:05.576Z,17.50
2022-09-10T17:43:36.903Z,17.50
2022-09-10T17:46:09.309Z,17.50
2022-09-10T17:48:37.945Z,17.40
2022-09-10T17:51:06.205Z,17.50
2022-09-10T17:53:34.924Z,17.40
2022-09-10T17:56:04.352Z,17.40
2022-09-10T17:58:33.232Z,17.30
2022-09-10T18:01:02.270Z,17.30
2022-09-10T18:03:29.494Z,17.30
2022-09-10T18:05:57.002Z,17.20
2022-09-10T18:08:23.813Z,17.20
2022-09-10T18:10:50.862Z,17.10
2022-09-10T18:13:20.388Z,17.20
2022-09-10T18:15:47.379Z,17.20
2022-09-10T18:18:14.210Z,17.20
2022-09-10T18:20:41.005Z,17.10
2022-09-10T18:23:07.838Z,17.10
2022-09-10T18:25:34.823Z,17.10
2022-09-10T18:28:01.784Z,17.10
2022-09-10T18:30:29.662Z,17.10
2022-09-10T18:32:56.417Z,17.10
2022-09-10T18:35:23.573Z,17.10
2022-09-10T18:37:51.727Z,17.00
2022-09-10T18:40:19.605Z,17.10
2022-09-10T18:42:49.579Z,17.10
2022-09-10T18:45:17.398Z,17.10
2022-09-10T18:47:45.509Z,17.10
2022-09-10T18:50:13.246Z,17.10
2022-09-10T18:52:40.314Z,17.10
2022-09-10T18:55:07.413Z,17.10
2022-09-10T18:57:34.342Z,17.10
2022-09-10T19:00:01.295Z,17.10
2022-09-10T19:02:28.077Z,17.10
2022-09-10T19:05:10.776Z,17.10
2022-09-10T19:07:38.409Z,17.10
2022-09-10T19:10:07.085Z,17.10
2022-09-10T19:12:34.266Z,17.10
2022-09-10T19:15:01.050Z,17.10
2022-09-10T19:17:27.835Z,17.10
2022-09-10T19:19:54.640Z,17.10
2022-09-10T19:22:21.396Z,17.10
2022-09-10T19:24:55.025Z,17.20
2022-09-10T19:27:23.021Z,17.20
2022-09-10T19:29:50.245Z,17.20
2022-09-10T19:32:19.869Z,17.20
2022-09-10T19:34:49.900Z,17.20
2022-09-10T19:37:17.280Z,17.20
2022-09-10T19:39:44.704Z,17.20
2022-09-10T19:42:12.490Z,17.10
2022-09-10T19:44:39.345Z,17.20
2022-09-10T19:47:06.364Z,17.20
2022-09-10T19:49:34.213Z,17.20
2022-09-10T19:52:01.357Z,17.10
2022-09-10T19:54:30.362Z,17.10
2022-09-10T19:56:57.269Z,17.00
2022-09-10T19:59:24.123Z,16.90
2022-09-10T20:01:51.112Z,16.90
2022-09-10T20:04:18.102Z,16.80
2022-09-10T20:06:46.133Z,16.80
2022-09-10T20:09:13.374Z,16.90
2022-09-10T20:11:40.866Z,16.90
2022-09-10T20:14:10.745Z,16.80
2022-09-10T20:16:39.059Z,16.80
2022-09-10T20:19:07.057Z,16.80
2022-09-10T20:21:35.103Z,16.80
2022-09-10T20:24:02.096Z,16.80
2022-09-10T20:26:31.945Z,16.80
2022-09-10T20:29:05.266Z,16.80
2022-09-10T20:31:34.168Z,16.80
2022-09-10T20:34:05.949Z,16.80
2022-09-10T20:36:34.886Z,16.80
2022-09-10T20:39:02.344Z,16.70
2022-09-10T20:41:30.543Z,16.80
2022-09-10T20:43:59.661Z,16.80
2022-09-10T20:46:28.656Z,16.70
2022-09-10T20:49:02.788Z,16.80
2022-09-10T20:51:33.139Z,16.80
2022-09-10T20:54:00.655Z,16.80
2022-09-10T20:56:27.618Z,16.80
2022-09-10T20:58:54.358Z,16.80
2022-09-10T21:01:26.190Z,16.80
2022-09-10T21:03:56.169Z,16.70
2022-09-10T21:06:26.257Z,16.80
2022-09-10T21:08:55.951Z,16.70
2022-09-10T21:11:24.995Z,16.80
2022-09-10T21:13:53.810Z,16.70
2022-09-10T21:16:27.033Z,16.70
2022-09-10T21:19:02.953Z,16.70
2022-09-10T21:21:34.165Z,16.70
2022-09-10T21:24:04.586Z,16.70
2022-09-10T21:26:34.344Z,16.70
2022-09-10T21:29:02.854Z,16.60
2022-09-10T21:31:30.394Z,16.60
2022-09-10T21:34:02.763Z,16.60
2022-09-10T21:36:31.822Z,16.70
2022-09-10T21:39:02.950Z,16.70
2022-09-10T21:41:39.453Z,16.70
2022-09-10T21:44:14.186Z,16.70
2022-09-10T21:46:42.928Z,16.60
2022-09-10T21:49:09.884Z,16.70
2022-09-10T21:51:37.336Z,16.70
2022-09-10T21:54:04.870Z,16.70
2022-09-10T21:56:32.334Z,16.70
2022-09-10T21:59:00.705Z,16.60
2022-09-10T22:01:30.673Z,16.60
2022-09-10T22:04:02.253Z,16.60
2022-09-10T22:06:30.768Z,16.60
2022-09-10T22:09:00.824Z,16.50
2022-09-10T22:11:36.767Z,16.50
2022-09-10T22:14:06.615Z,16.50
2022-09-10T22:16:35.519Z,16.50
2022-09-10T22:19:05.966Z,16.50
2022-09-10T22:21:33.189Z,16.50
2022-09-10T22:23:59.993Z,16.50
2022-09-10T22:26:31.084Z,16.50
2022-09-10T22:28:59.590Z,16.40
2022-09-10T22:31:34.340Z,16.40
2022-09-10T22:34:06.551Z,16.40
2022-09-10T22:36:36.347Z,16.40
2022-09-10T22:39:15.865Z,16.40
2022-09-10T22:41:43.353Z,16.40
2022-09-10T22:44:10.845Z,16.30
2022-09-10T22:46:38.616Z,16.30
2022-09-10T22:49:06.540Z,16.30
2022-09-10T22:51:37.007Z,16.30
2022-09-10T22:54:05.116Z,16.30
2022-09-10T22:56:31.895Z,16.30
2022-09-10T22:59:00.039Z,16.40
2022-09-10T23:01:33.940Z,16.40
2022-09-10T23:04:03.041Z,16.40
2022-09-10T23:06:32.639Z,16.40
2022-09-10T23:09:06.982Z,16.30
2022-09-10T23:11:35.737Z,16.30
2022-09-10T23:14:05.403Z,16.30
2022-09-10T23:16:51.883Z,16.20
2022-09-10T23:19:23.612Z,16.20
2022-09-10T23:21:53.871Z,16.20
2022-09-10T23:24:24.350Z,16.20
2022-09-10T23:26:51.659Z,16.20
2022-09-10T23:29:18.693Z,16.20
2022-09-10T23:31:47.469Z,16.10
2022-09-10T23:34:19.574Z,16.10
2022-09-10T23:36:48.053Z,16.20
2022-09-10T23:39:18.037Z,16.10
2022-09-10T23:41:44.822Z,16.10
2022-09-10T23:44:11.547Z,16.10
2022-09-10T23:46:38.589Z,16.00
2022-09-10T23:49:07.444Z,16.00
2022-09-10T23:51:35.079Z,15.90
2022-09-10T23:54:02.712Z,15.80
2022-09-10T23:56:29.698Z,15.80
2022-09-10T23:58:59.293Z,15.80
